Time;durP1;ratioP1;P1;durP2;ratioP2;P2;SDS_P1;SDS_P2;PMS_P1;PMS_P2;Temp;Humidity;BMP_temperature;BMP_pressure;BME280_temperature;BME280_humidity;BME280_pressure;Samples;Min_cycle;Max_cycle;Signal;HPM_P1;HPM_P2
2021/12/26 00:01:39;;;;;;;49.58;25.88;;;;;;;5.44;78.96;94690.66;5057597;28;20260;-74
2021/12/26 00:04:07;;;;;;;56.40;27.17;;;;;;;5.33;79.65;94678.25;5057156;28;20206;-73
2021/12/26 00:06:34;;;;;;;57.65;27.60;;;;;;;5.61;78.77;94685.28;5057951;28;20221;-73
2021/12/26 00:09:01;;;;;;;58.42;29.65;;;;;;;5.41;78.61;94671.41;5057363;28;20267;-73
2021/12/26 00:11:28;;;;;;;62.05;30.30;;;;;;;5.26;79.94;94691.00;5056174;28;20280;-73
2021/12/26 00:13:55;;;;;;;65.05;31.85;;;;;;;5.27;79.54;94697.69;5057032;28;20207;-73
2021/12/26 00:16:24;;;;;;;61.80;31.83;;;;;;;5.20;79.82;94696.97;5057297;28;20283;-72
2021/12/26 00:18:51;;;;;;;65.45;30.67;;;;;;;5.22;80.05;94685.19;5056659;28;20233;-72
2021/12/26 00:21:21;;;;;;;55.83;28.90;;;;;;;5.20;80.46;94691.94;5056919;28;20234;-73
2021/12/26 00:23:49;;;;;;;62.42;27.65;;;;;;;5.36;79.54;94695.00;5057253;28;20676;-73
2021/12/26 00:26:16;;;;;;;59.28;29.63;;;;;;;4.91;80.85;94699.22;5055969;28;20199;-72
2021/12/26 00:28:42;;;;;;;52.50;26.73;;;;;;;5.10;80.21;94695.50;5056072;28;20268;-73
2021/12/26 00:31:09;;;;;;;48.65;26.20;;;;;;;4.92;81.62;94691.63;5057102;28;20717;-75
2021/12/26 00:33:36;;;;;;;54.40;29.05;;;;;;;4.74;81.57;94695.28;5056922;28;20243;-72
2021/12/26 00:36:04;;;;;;;50.33;27.43;;;;;;;4.83;82.26;94689.28;5057077;28;20267;-72
2021/12/26 00:38:33;;;;;;;56.28;27.77;;;;;;;5.21;80.18;94693.59;5056066;28;20207;-73
2021/12/26 00:41:00;;;;;;;51.60;25.92;;;;;;;5.34;79.02;94690.00;5056760;28;20712;-72
2021/12/26 00:43:27;;;;;;;49.45;25.65;;;;;;;5.28;79.33;94704.41;5056318;28;20304;-73
2021/12/26 00:45:54;;;;;;;43.75;24.10;;;;;;;4.86;80.71;94704.31;5055582;28;20634;-72
2021/12/26 00:48:21;;;;;;;56.38;25.73;;;;;;;4.73;81.45;94703.69;5057397;28;20634;-72
2021/12/26 00:50:49;;;;;;;44.63;26.30;;;;;;;4.65;82.31;94697.16;5056821;28;20271;-72
2021/12/26 00:53:16;;;;;;;56.17;27.23;;;;;;;4.19;84.12;94702.91;5055599;28;20233;-72
2021/12/26 00:55:44;;;;;;;48.28;23.88;;;;;;;4.32;84.06;94708.56;5056526;28;20685;-73
2021/12/26 00:58:11;;;;;;;40.40;22.48;;;;;;;4.32;84.08;94709.41;5055937;28;20284;-72
2021/12/26 01:00:41;;;;;;;48.92;24.00;;;;;;;4.06;85.23;94692.19;5056591;28;20230;-72
2021/12/26 01:03:10;;;;;;;44.27;21.67;;;;;;;4.31;84.52;94706.91;5055502;28;20370;-72
2021/12/26 01:05:40;;;;;;;43.47;22.35;;;;;;;4.48;83.74;94709.97;5056252;28;20279;-72
2021/12/26 01:08:09;;;;;;;35.58;20.90;;;;;;;4.55;83.48;94701.50;5055439;28;20194;-71
2021/12/26 01:10:39;;;;;;;45.03;22.80;;;;;;;4.48;82.71;94697.41;5055427;28;20198;-73
2021/12/26 01:13:15;;;;;;;46.72;24.13;;;;;;;4.68;82.47;94690.38;5056450;28;20205;-74
2021/12/26 01:15:48;;;;;;;47.03;23.77;;;;;;;4.86;81.55;94683.34;5056056;28;20203;-73
2021/12/26 01:18:16;;;;;;;46.65;23.30;;;;;;;4.60;82.57;94688.84;5055265;28;20229;-73
2021/12/26 01:20:49;;;;;;;54.10;25.05;;;;;;;4.46;82.62;94691.56;5055261;28;20233;-74
2021/12/26 01:23:19;;;;;;;45.17;24.17;;;;;;;4.35;83.48;94693.44;5055722;28;20263;-74
2021/12/26 01:25:46;;;;;;;48.17;23.80;;;;;;;4.12;83.95;94680.38;5055635;28;21361;-73
2021/12/26 01:28:17;;;;;;;52.20;25.08;;;;;;;4.02;85.35;94678.00;5055023;28;20252;-74
2021/12/26 01:30:45;;;;;;;50.67;24.67;;;;;;;4.45;83.52;94669.81;5054322;28;20276;-74
2021/12/26 01:33:15;;;;;;;46.17;24.83;;;;;;;4.83;81.53;94678.38;5056272;28;20837;-72
2021/12/26 01:35:41;;;;;;;49.50;23.88;;;;;;;4.92;80.76;94673.19;5055295;28;20203;-73
2021/12/26 01:38:14;;;;;;;46.05;24.48;;;;;;;5.02;80.41;94664.59;5054678;28;20260;-73
2021/12/26 01:40:43;;;;;;;56.88;25.77;;;;;;;4.96;80.88;94667.22;5055074;28;20230;-72
2021/12/26 01:43:10;;;;;;;52.60;25.90;;;;;;;4.79;80.74;94668.34;5055095;28;20297;-73
2021/12/26 01:45:39;;;;;;;52.42;27.90;;;;;;;4.78;81.29;94659.13;5055734;28;20202;-74
2021/12/26 01:48:07;;;;;;;56.77;25.97;;;;;;;4.74;81.53;94662.56;5054800;28;20782;-74
2021/12/26 01:50:35;;;;;;;47.93;25.13;;;;;;;4.57;81.41;94667.06;5055326;28;20275;-73
2021/12/26 01:53:03;;;;;;;45.97;24.27;;;;;;;4.66;81.49;94663.56;5055629;28;20249;-73
2021/12/26 01:55:39;;;;;;;50.75;24.60;;;;;;;4.53;82.59;94665.44;5055409;28;20271;-74
2021/12/26 01:58:08;;;;;;;45.90;24.43;;;;;;;4.39;82.82;94657.31;5055263;28;20205;-72
2021/12/26 02:00:36;;;;;;;55.57;26.77;;;;;;;4.12;84.76;94663.59;5055877;28;20226;-74
2021/12/26 02:03:04;;;;;;;54.13;26.83;;;;;;;4.38;83.39;94659.00;5055259;28;20199;-73
2021/12/26 02:05:31;;;;;;;54.88;26.77;;;;;;;4.46;83.13;94663.88;5055141;28;20206;-72
2021/12/26 02:07:58;;;;;;;48.47;26.53;;;;;;;4.19;83.85;94656.81;5054196;28;21272;-73
2021/12/26 02:10:25;;;;;;;54.20;26.23;;;;;;;4.39;83.38;94659.81;5055297;28;20700;-72
2021/12/26 02:12:52;;;;;;;57.58;25.83;;;;;;;4.55;82.86;94647.81;5054555;28;20874;-72
2021/12/26 02:15:20;;;;;;;54.35;28.17;;;;;;;4.64;82.15;94651.00;5054549;28;20198;-73
2021/12/26 02:17:47;;;;;;;49.67;26.38;;;;;;;4.68;82.46;94650.09;5054931;28;20772;-72
2021/12/26 02:20:17;;;;;;;47.90;25.13;;;;;;;4.86;81.25;94650.63;5054965;28;20239;-72
2021/12/26 02:22:49;;;;;;;54.25;26.85;;;;;;;4.57;82.10;94659.50;5053662;28;20732;-73
2021/12/26 02:25:29;;;;;;;52.15;26.02;;;;;;;4.17;84.01;94653.47;5054970;28;20198;-73
2021/12/26 02:27:54;;;;;;;48.00;26.48;;;;;;;4.34;83.74;94661.59;5054795;28;20207;-73
2021/12/26 02:30:23;;;;;;;47.57;25.67;;;;;;;4.42;83.49;94654.75;5054866;28;20213;-73
2021/12/26 02:32:51;;;;;;;60.17;27.52;;;;;;;4.54;83.11;94648.66;5055077;28;20573;-73
2021/12/26 02:35:21;;;;;;;55.83;27.70;;;;;;;4.60;82.05;94644.38;5055219;28;20275;-73
2021/12/26 02:37:49;;;;;;;51.08;27.05;;;;;;;4.53;82.46;94645.31;5053984;28;20198;-73
2021/12/26 02:40:16;;;;;;;50.95;27.85;;;;;;;4.55;82.44;94652.84;5054211;28;20704;-72
2021/12/26 02:42:44;;;;;;;59.92;28.35;;;;;;;4.53;82.30;94647.84;5054715;28;20321;-74
2021/12/26 02:45:11;;;;;;;55.93;29.10;;;;;;;4.30;82.79;94654.94;5054642;28;20199;-74
2021/12/26 02:47:39;;;;;;;55.80;29.17;;;;;;;4.15;83.01;94640.94;5053040;28;20214;-73
2021/12/26 02:50:09;;;;;;;57.92;28.23;;;;;;;4.07;84.05;94650.25;5053926;28;20296;-73
2021/12/26 02:52:37;;;;;;;45.17;25.20;;;;;;;4.25;84.16;94651.66;5054774;28;20210;-72
2021/12/26 02:55:05;;;;;;;52.15;27.60;;;;;;;4.42;82.86;94654.75;5053897;28;20206;-73
2021/12/26 02:57:32;;;;;;;52.55;26.48;;;;;;;4.49;82.82;94653.78;5054521;28;20273;-73
2021/12/26 03:00:01;;;;;;;47.88;25.83;;;;;;;4.57;82.58;94659.50;5054765;28;20191;-73
2021/12/26 03:02:28;;;;;;;50.03;25.58;;;;;;;4.54;83.09;94643.63;5053775;28;20210;-73
2021/12/26 03:04:55;;;;;;;53.03;25.08;;;;;;;4.62;81.96;94642.66;5054638;28;20256;-73
2021/12/26 03:07:21;;;;;;;54.92;26.35;;;;;;;4.40;82.25;94656.47;5054099;28;20622;-72
2021/12/26 03:09:58;;;;;;;49.10;26.60;;;;;;;4.53;82.76;94654.56;5055368;28;20202;-73
2021/12/26 03:12:25;;;;;;;54.17;26.50;;;;;;;4.17;83.67;94650.97;5053621;28;20230;-71
2021/12/26 03:14:51;;;;;;;49.40;26.15;;;;;;;4.24;84.05;94655.03;5053965;28;20202;-72
2021/12/26 03:17:18;;;;;;;53.08;26.35;;;;;;;4.35;83.50;94650.66;5053747;28;20355;-74
2021/12/26 03:19:45;;;;;;;45.60;25.07;;;;;;;4.34;83.70;94637.25;5052223;28;20669;-72
2021/12/26 03:22:11;;;;;;;47.80;24.60;;;;;;;4.57;82.51;94636.03;5053934;28;20298;-73
2021/12/26 03:24:39;;;;;;;51.88;26.77;;;;;;;4.39;82.65;94642.22;5053579;28;20207;-73
2021/12/26 03:27:07;;;;;;;45.47;26.10;;;;;;;4.43;83.18;94646.34;5054226;28;20214;-73
2021/12/26 03:29:35;;;;;;;46.57;25.00;;;;;;;4.15;83.43;94635.06;5053202;28;20202;-73
2021/12/26 03:32:02;;;;;;;50.23;25.87;;;;;;;4.27;83.93;94637.38;5053247;28;20310;-74
2021/12/26 03:34:29;;;;;;;42.33;22.70;;;;;;;4.70;82.19;94633.25;5053753;28;20260;-73
2021/12/26 03:36:56;;;;;;;45.57;23.03;;;;;;;4.72;81.72;94641.63;5054198;28;20199;-73
2021/12/26 03:39:24;;;;;;;41.50;22.80;;;;;;;4.31;83.69;94639.00;5053271;28;20669;-74
2021/12/26 03:41:51;;;;;;;42.35;22.27;;;;;;;4.03;84.70;94643.63;5052638;28;20809;-73
2021/12/26 03:44:19;;;;;;;39.75;22.25;;;;;;;4.00;85.62;94657.06;5054444;28;20230;-73
2021/12/26 03:46:46;;;;;;;45.38;21.90;;;;;;;3.97;85.79;94662.13;5054270;28;20203;-74
2021/12/26 03:49:13;;;;;;;39.80;21.88;;;;;;;4.12;85.28;94665.28;5053247;28;20207;-74
2021/12/26 03:51:39;;;;;;;42.47;20.60;;;;;;;4.15;84.97;94655.19;5053971;28;20748;-73
2021/12/26 03:54:07;;;;;;;47.03;21.60;;;;;;;3.94;85.53;94651.31;5053419;28;20738;-73
2021/12/26 03:56:34;;;;;;;37.88;21.42;;;;;;;3.98;85.76;94662.97;5054075;28;20199;-76
2021/12/26 03:59:01;;;;;;;44.35;24.27;;;;;;;4.06;85.56;94662.00;5052418;28;20470;-75
2021/12/26 04:01:29;;;;;;;46.42;24.27;;;;;;;4.19;85.11;94666.88;5054257;28;20627;-74
2021/12/26 04:03:56;;;;;;;43.60;25.08;;;;;;;4.29;84.77;94661.66;5057964;28;20615;-72
2021/12/26 04:06:23;;;;;;;48.47;24.27;;;;;;;4.16;84.85;94665.22;5056017;28;20268;-74
2021/12/26 04:08:50;;;;;;;38.90;21.85;;;;;;;4.28;84.99;94681.78;5056777;28;20206;-74
2021/12/26 04:11:17;;;;;;;44.00;23.17;;;;;;;4.15;85.15;94683.69;5057114;28;20767;-74
2021/12/26 04:13:44;;;;;;;37.43;22.07;;;;;;;4.08;85.51;94660.31;5057005;28;20677;-74
2021/12/26 04:16:10;;;;;;;47.40;22.60;;;;;;;4.43;84.44;94669.00;5057295;28;20292;-74
2021/12/26 04:18:39;;;;;;;38.17;19.95;;;;;;;4.63;83.41;94666.97;5055870;28;20190;-74
2021/12/26 04:21:06;;;;;;;32.13;18.33;;;;;;;4.63;83.12;94669.47;5056006;28;20237;-74
2021/12/26 04:23:33;;;;;;;34.33;18.93;;;;;;;4.71;82.85;94672.69;5057365;28;20673;-74
2021/12/26 04:26:00;;;;;;;36.27;20.87;;;;;;;4.51;83.17;94669.69;5056842;28;20236;-74
2021/12/26 04:28:26;;;;;;;36.07;19.93;;;;;;;4.39;84.10;94674.91;5056113;28;21251;-73
2021/12/26 04:30:53;;;;;;;35.57;19.60;;;;;;;4.69;82.78;94669.38;5055960;28;20230;-73
2021/12/26 04:33:20;;;;;;;32.22;19.17;;;;;;;4.61;82.93;94668.69;5056125;28;20209;-72
2021/12/26 04:35:48;;;;;;;34.95;19.65;;;;;;;4.76;82.64;94675.97;5057024;28;20207;-73
2021/12/26 04:38:15;;;;;;;36.90;20.37;;;;;;;4.55;83.26;94666.25;5055931;28;20198;-73
2021/12/26 04:40:42;;;;;;;39.20;20.65;;;;;;;4.73;82.36;94668.44;5055860;28;20853;-73
2021/12/26 04:43:09;;;;;;;33.28;19.23;;;;;;;4.94;82.10;94674.00;5056868;28;20224;-73
2021/12/26 04:45:36;;;;;;;35.08;19.17;;;;;;;4.63;82.66;94669.47;5056541;28;20248;-74
2021/12/26 04:48:03;;;;;;;38.07;20.17;;;;;;;4.56;83.21;94683.03;5056471;28;20207;-73
2021/12/26 04:50:30;;;;;;;35.92;18.77;;;;;;;4.57;84.00;94681.34;5056643;28;20195;-73
2021/12/26 04:52:58;;;;;;;30.23;18.47;;;;;;;4.67;83.47;94680.34;5056093;28;20653;-73
2021/12/26 04:55:27;;;;;;;34.47;18.17;;;;;;;4.74;83.03;94676.84;5056203;28;20747;-73
2021/12/26 04:57:55;;;;;;;30.13;17.20;;;;;;;4.69;82.87;94673.59;5055936;28;20195;-74
2021/12/26 05:00:26;;;;;;;33.73;19.60;;;;;;;4.51;83.34;94689.81;5056629;28;20199;-73
2021/12/26 05:02:55;;;;;;;26.60;17.67;;;;;;;4.37;84.52;94681.66;5056039;28;20643;-73
2021/12/26 05:05:22;;;;;;;31.38;17.73;;;;;;;4.64;83.66;94687.94;5054844;28;20344;-73
2021/12/26 05:07:49;;;;;;;26.30;16.65;;;;;;;4.93;82.60;94690.78;5055904;28;20209;-73
2021/12/26 05:10:19;;;;;;;28.67;17.27;;;;;;;4.86;82.15;94693.44;5056547;28;20202;-72
2021/12/26 05:12:45;;;;;;;30.70;17.30;;;;;;;4.72;82.72;94683.56;5054541;28;20229;-73
2021/12/26 05:15:16;;;;;;;35.10;17.95;;;;;;;4.83;82.41;94681.72;5056125;28;20203;-74
2021/12/26 05:17:46;;;;;;;33.08;18.25;;;;;;;4.95;81.82;94688.25;5054557;28;20207;-72
2021/12/26 05:20:13;;;;;;;36.23;19.53;;;;;;;5.03;81.17;94689.75;5056276;28;21532;-73
2021/12/26 05:22:40;;;;;;;37.20;19.30;;;;;;;4.98;81.06;94685.63;5055587;28;20230;-73
2021/12/26 05:25:08;;;;;;;40.30;20.30;;;;;;;5.06;81.01;94696.41;5055561;28;20259;-73
2021/12/26 05:27:37;;;;;;;38.60;20.67;;;;;;;5.10;81.07;94701.38;5055354;28;20295;-74
2021/12/26 05:30:06;;;;;;;36.72;20.08;;;;;;;5.08;80.74;94709.81;5056673;28;20218;-73
2021/12/26 05:32:32;;;;;;;38.78;21.08;;;;;;;4.99;81.62;94707.44;5054970;28;20604;-73
2021/12/26 05:34:59;;;;;;;34.80;19.63;;;;;;;4.97;82.44;94710.00;5053923;28;20245;-74
2021/12/26 05:37:26;;;;;;;40.47;20.58;;;;;;;5.17;81.34;94707.13;5055902;28;20207;-73
2021/12/26 05:39:53;;;;;;;33.67;20.15;;;;;;;5.13;81.01;94711.41;5055267;28;20252;-73
2021/12/26 05:42:20;;;;;;;40.45;20.67;;;;;;;5.28;81.01;94705.22;5055756;28;20237;-74
2021/12/26 05:44:49;;;;;;;41.78;20.83;;;;;;;4.99;82.47;94695.69;5054958;28;20203;-74
2021/12/26 05:47:16;;;;;;;41.10;21.77;;;;;;;4.93;83.81;94687.44;5055036;28;20316;-73
2021/12/26 05:49:43;;;;;;;37.47;21.20;;;;;;;4.83;84.94;94686.75;5055702;28;20264;-74
2021/12/26 05:52:10;;;;;;;41.58;21.13;;;;;;;4.95;84.18;94693.28;5053930;28;20205;-74
2021/12/26 05:54:37;;;;;;;36.03;19.20;;;;;;;4.89;84.56;94686.66;5054914;28;20297;-74
2021/12/26 05:57:08;;;;;;;38.93;20.57;;;;;;;5.13;84.26;94685.38;5055306;28;20206;-75
2021/12/26 05:59:35;;;;;;;37.83;20.80;;;;;;;4.72;87.63;94665.97;5055269;28;20248;-74
2021/12/26 06:02:03;;;;;;;40.33;20.67;;;;;;;4.90;86.91;94667.34;5054191;28;20226;-74
2021/12/26 06:04:31;;;;;;;35.28;20.67;;;;;;;5.01;86.48;94665.44;5054737;28;20210;-75
2021/12/26 06:06:58;;;;;;;44.15;22.40;;;;;;;4.83;87.47;94656.53;5054848;28;20199;-74
2021/12/26 06:09:25;;;;;;;42.50;22.23;;;;;;;4.61;88.49;94648.53;5054352;28;20202;-75
2021/12/26 06:11:52;;;;;;;43.53;22.85;;;;;;;4.66;89.61;94649.31;5053690;28;20257;-73
2021/12/26 06:14:19;;;;;;;41.08;22.55;;;;;;;4.61;90.72;94641.00;5055141;28;20198;-74
2021/12/26 06:16:46;;;;;;;40.33;22.13;;;;;;;4.65;89.62;94646.81;5054794;28;20190;-73
2021/12/26 06:19:14;;;;;;;47.17;23.40;;;;;;;4.61;89.24;94642.69;5053946;28;20605;-72
2021/12/26 06:21:41;;;;;;;40.38;22.77;;;;;;;4.30;89.79;94639.84;5054602;28;20231;-74
2021/12/26 06:24:08;;;;;;;44.90;23.80;;;;;;;4.39;89.70;94649.75;5053780;28;20207;-72
2021/12/26 06:26:35;;;;;;;44.60;23.65;;;;;;;4.39;90.98;94634.69;5055147;28;20217;-72
2021/12/26 06:29:02;;;;;;;40.60;23.05;;;;;;;4.25;91.57;94626.50;5053559;28;20742;-72
2021/12/26 06:31:29;;;;;;;44.67;23.42;;;;;;;4.24;92.70;94634.91;5053380;28;20225;-74
2021/12/26 06:33:55;;;;;;;39.80;21.52;;;;;;;4.42;91.52;94622.88;5054249;28;20281;-73
2021/12/26 06:36:23;;;;;;;36.13;20.70;;;;;;;4.40;92.55;94641.38;5054212;28;20210;-73
2021/12/26 06:38:50;;;;;;;37.97;21.35;;;;;;;4.43;91.88;94638.81;5054511;28;20252;-74
2021/12/26 06:41:17;;;;;;;38.50;23.85;;;;;;;4.48;91.31;94664.69;5053579;28;20226;-74
2021/12/26 06:43:44;;;;;;;43.15;23.25;;;;;;;4.61;91.68;94676.22;5053025;28;20259;-74
2021/12/26 06:46:12;;;;;;;39.67;22.15;;;;;;;4.87;90.46;94678.28;5054522;28;20264;-74
2021/12/26 06:48:42;;;;;;;41.30;21.23;;;;;;;4.70;90.71;94662.66;5053399;28;20206;-73
2021/12/26 06:51:09;;;;;;;36.72;19.60;;;;;;;4.86;91.11;94676.63;5054351;28;20255;-74
2021/12/26 06:53:38;;;;;;;28.40;17.65;;;;;;;4.62;90.19;94672.84;5053059;28;20267;-73
2021/12/26 06:56:05;;;;;;;26.80;16.75;;;;;;;4.58;89.80;94661.19;5054972;28;20194;-73
2021/12/26 06:58:32;;;;;;;27.10;16.23;;;;;;;4.40;90.40;94676.59;5053885;28;20747;-73
2021/12/26 07:00:59;;;;;;;32.33;18.33;;;;;;;4.57;91.08;94684.69;5053095;28;20202;-73
2021/12/26 07:03:26;;;;;;;29.80;16.10;;;;;;;4.45;91.64;94679.88;5053794;28;20235;-73
2021/12/26 07:05:53;;;;;;;26.37;16.43;;;;;;;4.68;91.19;94682.81;5054087;28;20254;-73
2021/12/26 07:08:19;;;;;;;27.38;15.88;;;;;;;4.66;91.87;94691.25;5054232;28;20252;-73
2021/12/26 07:10:48;;;;;;;27.60;16.30;;;;;;;4.75;92.83;94703.66;5053477;28;20862;-73
2021/12/26 07:13:15;;;;;;;27.38;15.95;;;;;;;4.99;91.13;94709.97;5053961;28;20628;-73
2021/12/26 07:15:42;;;;;;;28.73;17.30;;;;;;;5.04;90.96;94708.19;5054316;28;20206;-74
2021/12/26 07:18:08;;;;;;;29.20;18.10;;;;;;;4.96;91.99;94698.25;5053877;28;20596;-74
2021/12/26 07:20:35;;;;;;;27.80;18.10;;;;;;;4.85;93.54;94700.16;5053090;28;20260;-73
2021/12/26 07:23:02;;;;;;;36.50;21.37;;;;;;;4.96;92.74;94698.25;5054555;28;20225;-73
2021/12/26 07:25:29;;;;;;;43.70;22.93;;;;;;;5.09;93.07;94698.88;5053641;28;20280;-73
2021/12/26 07:27:57;;;;;;;56.53;29.42;;;;;;;4.98;92.85;94689.00;5053774;28;20203;-73
2021/12/26 07:30:24;;;;;;;62.92;35.13;;;;;;;5.11;92.12;94689.59;5052753;28;20649;-73
2021/12/26 07:32:50;;;;;;;58.78;34.50;;;;;;;5.01;92.25;94688.09;5053305;28;20640;-74
2021/12/26 07:35:17;;;;;;;66.43;32.80;;;;;;;5.10;93.15;94695.50;5054562;28;20255;-73
2021/12/26 07:37:45;;;;;;;60.22;32.63;;;;;;;5.14;93.11;94697.13;5056928;28;20724;-74
2021/12/26 07:40:13;;;;;;;64.47;32.67;;;;;;;5.10;93.54;94701.38;5057438;28;21164;-74
2021/12/26 07:42:41;;;;;;;48.85;30.08;;;;;;;5.18;93.96;94707.97;5057323;28;20705;-74
2021/12/26 07:45:10;;;;;;;53.72;29.45;;;;;;;5.36;94.20;94688.28;5057048;28;20668;-75
2021/12/26 07:47:37;;;;;;;52.42;28.67;;;;;;;5.31;92.43;94690.06;5057469;28;20753;-74
2021/12/26 07:50:05;;;;;;;54.35;29.55;;;;;;;5.26;91.68;94676.72;5057369;28;20276;-74
2021/12/26 07:52:37;;;;;;;46.85;28.55;;;;;;;5.39;91.92;94678.16;5057129;28;20680;-74
2021/12/26 07:55:05;;;;;;;54.28;29.85;;;;;;;5.44;93.25;94683.91;5057229;28;20234;-74
2021/12/26 07:57:32;;;;;;;53.47;29.23;;;;;;;5.46;92.63;94693.97;5057059;28;20206;-73
2021/12/26 07:59:59;;;;;;;51.05;28.00;;;;;;;5.44;92.91;94688.94;5056324;28;20238;-74
2021/12/26 08:02:27;;;;;;;47.47;27.63;;;;;;;5.44;93.07;94686.44;5056932;28;20913;-74
2021/12/26 08:04:54;;;;;;;31.52;20.25;;;;;;;5.50;91.06;94679.59;5056961;28;20232;-74
2021/12/26 08:07:20;;;;;;;26.83;18.50;;;;;;;5.49;90.55;94678.78;5055589;28;20263;-72
2021/12/26 08:09:47;;;;;;;26.75;17.50;;;;;;;5.25;91.62;94669.19;5055901;28;20589;-74
2021/12/26 08:12:14;;;;;;;32.40;16.00;;;;;;;5.11;92.41;94656.88;5057288;28;20235;-74
2021/12/26 08:14:40;;;;;;;30.73;17.03;;;;;;;5.36;91.64;94663.09;5056239;28;20898;-73
2021/12/26 08:17:07;;;;;;;25.60;14.05;;;;;;;5.35;90.46;94651.34;5056554;28;20206;-73
2021/12/26 08:19:36;;;;;;;23.67;15.03;;;;;;;5.42;90.88;94662.97;5056884;28;20568;-74
2021/12/26 08:22:05;;;;;;;22.17;14.37;;;;;;;5.53;91.25;94672.00;5057382;28;20234;-73
2021/12/26 08:24:32;;;;;;;25.73;15.82;;;;;;;5.67;90.75;94672.56;5056508;28;20207;-74
2021/12/26 08:26:58;;;;;;;27.50;15.68;;;;;;;5.86;90.23;94663.72;5056850;28;20202;-74
2021/12/26 08:29:25;;;;;;;25.17;14.82;;;;;;;6.00;89.21;94654.19;5055999;28;20206;-73
2021/12/26 08:31:58;;;;;;;22.63;13.90;;;;;;;6.08;89.55;94659.06;5056250;28;20226;-75
2021/12/26 08:34:26;;;;;;;22.98;14.93;;;;;;;6.01;88.81;94653.31;5055805;28;20195;-75
2021/12/26 08:37:00;;;;;;;22.55;15.13;;;;;;;6.05;88.59;94664.19;5055856;28;20892;-74
2021/12/26 08:39:27;;;;;;;19.08;12.38;;;;;;;6.34;87.74;94682.00;5056856;28;20301;-74
2021/12/26 08:41:54;;;;;;;25.92;14.40;;;;;;;6.23;89.29;94693.19;5054322;28;20227;-74
2021/12/26 08:44:20;;;;;;;25.98;16.30;;;;;;;6.56;88.68;94684.00;5057252;28;20264;-73
2021/12/26 08:46:48;;;;;;;30.25;16.70;;;;;;;6.71;88.38;94679.41;5054659;28;20579;-74
2021/12/26 08:49:16;;;;;;;29.77;17.38;;;;;;;7.01;87.57;94671.94;5055216;28;20252;-75
2021/12/26 08:51:43;;;;;;;32.35;18.77;;;;;;;7.13;87.12;94671.63;5054981;28;20202;-74
2021/12/26 08:54:12;;;;;;;35.10;20.67;;;;;;;7.29;84.96;94674.56;5055640;28;20267;-74
2021/12/26 08:56:39;;;;;;;36.47;19.67;;;;;;;7.18;85.60;94673.13;5055950;28;20248;-74
2021/12/26 08:59:07;;;;;;;35.63;21.00;;;;;;;7.18;86.05;94674.84;5055931;28;20214;-76
2021/12/26 09:01:34;;;;;;;39.08;22.23;;;;;;;7.18;86.70;94672.31;5051934;28;20269;-75
2021/12/26 09:04:02;;;;;;;40.67;23.02;;;;;;;7.00;87.22;94667.75;5054641;28;20277;-75
2021/12/26 09:06:29;;;;;;;35.58;21.92;;;;;;;6.71;87.74;94612.94;5054557;28;20644;-75
2021/12/26 09:08:56;;;;;;;45.45;22.20;;;;;;;7.04;87.86;94652.47;5055831;28;20199;-74
2021/12/26 09:11:24;;;;;;;37.03;23.55;;;;;;;7.32;87.21;94656.78;5056160;28;20300;-73
2021/12/26 09:13:51;;;;;;;38.20;22.88;;;;;;;7.15;86.17;94642.09;5055072;28;20309;-75
2021/12/26 09:16:18;;;;;;;42.83;24.35;;;;;;;7.14;86.55;94645.47;5055747;28;20207;-75
2021/12/26 09:18:45;;;;;;;36.80;22.63;;;;;;;7.31;86.07;94638.25;5054289;28;20232;-74
2021/12/26 09:21:11;;;;;;;43.58;24.98;;;;;;;7.55;85.41;94649.38;5052630;28;20199;-75
2021/12/26 09:23:38;;;;;;;38.30;24.67;;;;;;;7.41;86.27;94643.91;5052758;28;20230;-75
2021/12/26 09:26:05;;;;;;;38.30;23.83;;;;;;;7.37;86.37;94648.22;5054728;28;20267;-74
2021/12/26 09:28:36;;;;;;;34.42;21.52;;;;;;;7.35;85.30;94632.25;5052985;28;20673;-76
2021/12/26 09:31:04;;;;;;;33.40;20.27;;;;;;;7.41;85.01;94629.56;5054319;28;20310;-76
2021/12/26 09:33:31;;;;;;;30.77;18.85;;;;;;;7.75;83.98;94653.88;5054586;28;20202;-75
2021/12/26 09:35:57;;;;;;;34.45;20.65;;;;;;;7.71;83.95;94650.59;5055584;28;20646;-74
2021/12/26 09:38:25;;;;;;;34.42;20.70;;;;;;;7.62;84.07;94650.03;5054057;28;20250;-75
2021/12/26 09:40:52;;;;;;;31.92;19.40;;;;;;;7.57;84.31;94656.94;5054878;28;20195;-75
2021/12/26 09:43:18;;;;;;;34.38;20.75;;;;;;;7.67;85.26;94660.88;5055158;28;20242;-75
2021/12/26 09:45:47;;;;;;;35.85;21.30;;;;;;;7.81;83.17;94654.53;5055533;28;20279;-74
2021/12/26 09:48:13;;;;;;;45.08;23.42;;;;;;;7.56;84.60;94653.56;5055270;28;20198;-74
2021/12/26 09:50:43;;;;;;;33.28;20.52;;;;;;;7.46;85.03;94642.88;5053157;28;20213;-74
2021/12/26 09:53:10;;;;;;;33.83;21.45;;;;;;;7.21;85.13;94652.00;5055968;28;20199;-73
2021/12/26 09:55:36;;;;;;;36.75;20.85;;;;;;;7.26;86.67;94646.84;5054919;28;20622;-75
2021/12/26 09:58:04;;;;;;;30.60;19.27;;;;;;;7.41;86.02;94649.78;5054865;28;20260;-75
2021/12/26 10:00:34;;;;;;;32.85;18.27;;;;;;;7.73;83.77;94661.50;5054985;28;20203;-75
2021/12/26 10:03:20;;;;;;;25.15;16.77;;;;;;;8.10;83.07;94656.19;5054655;28;20222;-76
2021/12/26 10:06:08;;;;;;;30.02;17.85;;;;;;;8.44;81.00;94655.97;5055228;28;20598;-75
2021/12/26 10:08:50;;;;;;;38.65;18.67;;;;;;;8.29;81.42;94656.44;5054308;28;20289;-74
2021/12/26 10:11:19;;;;;;;24.95;17.27;;;;;;;8.66;79.17;94666.25;5055147;28;20230;-75
2021/12/26 10:13:48;;;;;;;24.10;15.70;;;;;;;8.40;80.64;94633.34;5054075;28;21272;-74
2021/12/26 10:16:17;;;;;;;22.48;13.82;;;;;;;8.39;79.77;94649.44;5055245;28;20340;-75
2021/12/26 10:18:47;;;;;;;27.33;15.73;;;;;;;8.55;79.72;94642.16;5054673;28;20209;-75
2021/12/26 10:21:38;;;;;;;18.08;12.93;;;;;;;8.72;77.96;94655.09;5054829;28;20745;-74
2021/12/26 10:24:08;;;;;;;22.80;13.75;;;;;;;8.52;78.76;94653.22;5054844;28;20234;-74
2021/12/26 10:26:37;;;;;;;25.20;12.43;;;;;;;8.47;78.40;94667.72;5053903;28;20209;-73
2021/12/26 10:29:05;;;;;;;17.65;11.77;;;;;;;8.63;77.39;94666.38;5054596;28;20257;-73
2021/12/26 10:31:32;;;;;;;16.23;10.38;;;;;;;8.61;77.39;94670.66;5054737;28;20214;-75
2021/12/26 10:34:01;;;;;;;18.55;10.90;;;;;;;8.83;77.38;94669.06;5053836;28;20320;-74
2021/12/26 10:36:28;;;;;;;20.38;12.27;;;;;;;8.90;76.37;94654.50;5054641;28;20272;-76
2021/12/26 10:39:08;;;;;;;14.90;10.57;;;;;;;8.87;75.65;94657.13;5052452;28;20202;-75
2021/12/26 10:41:41;;;;;;;17.77;10.50;;;;;;;8.64;76.28;94637.63;5055403;28;20839;-72
2021/12/26 10:44:08;;;;;;;17.17;11.75;;;;;;;8.48;76.87;94628.84;5053611;28;20260;-72
2021/12/26 10:46:37;;;;;;;20.80;12.85;;;;;;;8.88;76.22;94635.16;5053787;28;20202;-75
2021/12/26 10:49:33;;;;;;;21.10;11.63;;;;;;;8.67;75.24;94649.34;5052888;28;20203;-73
2021/12/26 10:52:01;;;;;;;15.07;11.20;;;;;;;8.63;75.29;94643.56;5036162;28;20218;-75
2021/12/26 10:54:31;;;;;;;15.18;11.15;;;;;;;8.90;75.54;94649.44;5053988;28;20301;-74
2021/12/26 10:57:10;;;;;;;18.23;11.80;;;;;;;9.18;74.66;94649.28;5054310;28;20252;-74
2021/12/26 10:59:38;;;;;;;20.73;12.77;;;;;;;9.43;73.21;94651.78;5053845;28;20218;-76
2021/12/26 11:02:05;;;;;;;15.48;11.07;;;;;;;9.47;72.94;94646.56;5054052;28;20261;-74
2021/12/26 11:04:35;;;;;;;18.13;10.98;;;;;;;9.65;72.53;94659.47;5054006;28;20252;-74
2021/12/26 11:07:05;;;;;;;13.88;10.38;;;;;;;9.84;72.43;94651.13;5053254;28;20195;-73
2021/12/26 11:09:32;;;;;;;11.75;9.75;;;;;;;10.02;71.35;94648.78;5054629;28;20615;-74
2021/12/26 11:12:02;;;;;;;20.10;12.60;;;;;;;10.06;71.15;94656.22;5055469;28;20237;-74
2021/12/26 11:14:29;;;;;;;18.08;12.77;;;;;;;9.98;71.49;94655.69;5058503;28;20206;-74
2021/12/26 11:16:57;;;;;;;21.45;13.77;;;;;;;9.99;71.79;94653.97;5057697;28;20263;-74
2021/12/26 11:19:46;;;;;;;19.05;13.90;;;;;;;10.16;70.73;94647.34;5057505;28;20202;-73
2021/12/26 11:22:13;;;;;;;19.27;14.02;;;;;;;9.96;71.44;94641.38;5057780;28;20207;-74
2021/12/26 11:24:40;;;;;;;19.88;12.80;;;;;;;9.98;71.91;94648.06;5057216;28;20330;-74
2021/12/26 11:27:08;;;;;;;31.77;18.90;;;;;;;9.88;71.92;94646.78;5058931;28;20203;-75
2021/12/26 11:29:35;;;;;;;24.20;14.43;;;;;;;9.72;72.28;94665.97;5057072;28;20249;-74